Terminal Aerodrome Forecast
Issued by NWS Green Bay, WI

Home | Current Version | Previous Version | Text Only | Print | Product List | Glossary Off
Versions: 1 2 3 4 5 6 7 8 9 10 11 12 13 14 15 16 17 18 19 20 21 22 23 24 25 26 27 28 29 30 31 32 33 34 35 36 37 38 39 40 41 42 43 44 45 46

926
FTUS43 KGRB 151500 AAB
TAFGRB
TAF AMD
KGRB 151500Z 1515/1612 08005KT 2SM -SN SCT020 OVC040
      TEMPO 1515/1517 3/4SM -SN OVC020
     FM151700 08008KT 1 1/2SM -SN OVC015
     FM160000 04011KT 3SM -SN OVC022
     FM160500 02010G15KT P6SM -SN OVC018
     FM160800 36009KT P6SM BKN022=

USA.gov is the U.S. government's official web portal to all federal, state and local government web resources and services.